createdAt,value
2023-03-14T00:02:28.672Z,14.52
2023-03-14T00:05:16.330Z,12.80
2023-03-14T00:08:03.946Z,17.65
2023-03-14T00:10:51.610Z,13.32
2023-03-14T00:13:39.567Z,16.50
2023-03-14T00:16:28.990Z,16.52
2023-03-14T00:19:17.075Z,18.98
2023-03-14T00:22:04.801Z,15.95
2023-03-14T00:24:52.435Z,14.82
2023-03-14T00:27:40.438Z,15.93
2023-03-14T00:30:28.108Z,17.80
2023-03-14T00:33:15.800Z,16.83
2023-03-14T00:36:06.787Z,22.60
2023-03-14T00:38:54.618Z,18.52
2023-03-14T00:41:42.146Z,17.25
2023-03-14T00:44:29.897Z,12.60
2023-03-14T00:47:18.337Z,16.38
2023-03-14T00:50:06.632Z,14.70
2023-03-14T00:52:54.271Z,15.55
2023-03-14T00:55:46.164Z,14.90
2023-03-14T00:58:33.866Z,22.38
2023-03-14T01:01:24.318Z,11.57
2023-03-14T01:04:12.346Z,10.40
2023-03-14T01:06:59.993Z,12.63
2023-03-14T01:09:47.632Z,12.77
2023-03-14T01:12:36.179Z,15.50
2023-03-14T01:15:23.850Z,13.27
2023-03-14T01:18:11.643Z,20.90
2023-03-14T01:20:59.770Z,17.48
2023-03-14T01:23:48.451Z,14.10
2023-03-14T01:26:36.744Z,10.55
2023-03-14T01:29:26.774Z,10.73
2023-03-14T01:32:14.901Z,11.77
2023-03-14T01:35:02.643Z,9.85
2023-03-14T01:37:51.272Z,13.35
2023-03-14T01:40:46.126Z,13.30
2023-03-14T01:43:34.892Z,18.33
2023-03-14T01:46:45.469Z,14.52
2023-03-14T01:49:37.600Z,8.38
2023-03-14T01:52:36.398Z,10.82
2023-03-14T01:55:26.946Z,13.38
2023-03-14T01:58:16.097Z,15.80
2023-03-14T02:01:05.577Z,13.55
2023-03-14T02:03:57.569Z,12.88
2023-03-14T02:06:52.747Z,8.48
2023-03-14T02:09:45.335Z,13.65
2023-03-14T02:12:40.448Z,10.48
2023-03-14T02:15:34.404Z,11.85
2023-03-14T02:18:27.644Z,10.63
2023-03-14T02:22:13.904Z,12.07
2023-03-14T02:25:17.142Z,11.38
2023-03-14T02:28:05.837Z,9.30
2023-03-14T02:30:54.693Z,12.20
2023-03-14T02:33:42.572Z,11.70
2023-03-14T02:36:31.420Z,14.57
2023-03-14T02:39:29.257Z,7.50
2023-03-14T02:42:17.988Z,8.43
2023-03-14T02:45:08.904Z,9.75
2023-03-14T02:48:07.652Z,9.85
2023-03-14T02:51:00.172Z,13.75
2023-03-14T02:53:48.866Z,11.23
2023-03-14T02:56:39.655Z,15.65
2023-03-14T02:59:28.653Z,8.77
2023-03-14T03:02:19.918Z,11.27
2023-03-14T03:05:07.813Z,12.55
2023-03-14T03:07:55.628Z,18.80
2023-03-14T03:10:43.228Z,11.55
2023-03-14T03:13:30.981Z,14.80
2023-03-14T03:16:20.112Z,13.27
2023-03-14T03:19:07.953Z,11.02
2023-03-14T03:21:55.559Z,15.13
2023-03-14T03:24:50.416Z,14.13
2023-03-14T03:27:39.400Z,19.48
2023-03-14T03:30:27.137Z,16.65
2023-03-14T03:33:15.065Z,26.77
2023-03-14T03:36:06.002Z,41.70
2023-03-14T03:38:57.112Z,40.10
2023-03-14T03:41:45.560Z,19.98
2023-03-14T03:44:33.610Z,26.58
2023-03-14T03:47:22.454Z,23.25
2023-03-14T03:50:11.055Z,25.58
2023-03-14T03:52:58.892Z,19.63
2023-03-14T03:55:47.082Z,25.52
2023-03-14T03:58:35.232Z,23.45
2023-03-14T04:01:23.827Z,23.58
2023-03-14T04:04:15.231Z,21.90
2023-03-14T04:07:06.223Z,15.85
2023-03-14T04:09:53.974Z,16.25
2023-03-14T04:13:04.318Z,24.67
2023-03-14T04:15:55.534Z,23.45
2023-03-14T04:21:34.252Z,26.40
2023-03-14T04:24:22.368Z,28.00
2023-03-14T04:27:11.282Z,26.15
2023-03-14T04:29:58.995Z,26.75
2023-03-14T04:33:05.616Z,25.42
2023-03-14T04:35:56.734Z,29.08
2023-03-14T04:38:45.674Z,29.75
2023-03-14T04:49:56.875Z,30.17
2023-03-14T04:52:46.049Z,23.33
2023-03-14T04:55:34.339Z,41.25
2023-03-14T04:58:24.082Z,30.67
2023-03-14T05:01:13.855Z,23.67
2023-03-14T05:04:09.541Z,30.13
2023-03-14T05:07:13.838Z,29.40
2023-03-14T05:10:16.315Z,27.88
2023-03-14T05:13:29.319Z,34.58
2023-03-14T05:16:39.999Z,36.70
2023-03-14T05:19:38.484Z,14.25
2023-03-14T05:22:46.567Z,13.60
2023-03-14T05:25:54.403Z,19.15
2023-03-14T05:29:02.347Z,24.58
2023-03-14T05:32:00.045Z,24.52
2023-03-14T05:35:06.771Z,10.82
2023-03-14T05:38:16.861Z,25.83
2023-03-14T05:41:27.550Z,26.17
2023-03-14T05:44:41.295Z,51.25
2023-03-14T05:47:35.204Z,30.15
2023-03-14T05:50:58.607Z,24.42
2023-03-14T05:53:58.984Z,20.63
2023-03-14T05:57:19.157Z,24.88
2023-03-14T06:00:26.197Z,14.88
2023-03-14T06:03:34.671Z,17.63
2023-03-14T06:06:22.524Z,18.33
2023-03-14T06:09:12.671Z,8.68
2023-03-14T06:12:03.667Z,15.05
2023-03-14T06:14:57.029Z,6.93
2023-03-14T06:17:44.882Z,16.98
2023-03-14T06:20:36.392Z,12.93
2023-03-14T06:23:24.896Z,12.07
2023-03-14T06:26:12.999Z,9.88
2023-03-14T06:29:04.566Z,11.90
2023-03-14T06:31:53.924Z,14.32
2023-03-14T06:34:42.034Z,17.50
2023-03-14T06:37:30.600Z,9.23
2023-03-14T06:40:19.610Z,11.38
2023-03-14T06:43:27.429Z,16.17
2023-03-14T06:46:17.031Z,12.23
2023-03-14T06:49:07.226Z,14.20
2023-03-14T06:51:55.047Z,8.32
2023-03-14T06:54:42.975Z,8.75
2023-03-14T06:57:30.916Z,21.02
2023-03-14T07:00:19.201Z,9.77
2023-03-14T07:03:07.360Z,13.40
2023-03-14T07:08:49.753Z,11.90
2023-03-14T07:11:38.733Z,10.48
2023-03-14T07:14:26.636Z,12.27
2023-03-14T07:17:15.101Z,14.20
2023-03-14T07:20:07.384Z,9.25
2023-03-14T07:22:56.138Z,7.45
2023-03-14T07:25:56.234Z,12.02
2023-03-14T07:28:46.724Z,12.20
2023-03-14T07:31:38.233Z,10.63
2023-03-14T07:34:28.480Z,12.25
2023-03-14T07:37:18.042Z,15.77
2023-03-14T07:40:08.438Z,10.43
2023-03-14T07:42:58.724Z,14.73
2023-03-14T07:46:02.209Z,9.38
2023-03-14T07:48:50.084Z,8.07
2023-03-14T07:51:37.832Z,4.82
2023-03-14T07:54:28.360Z,8.05
2023-03-14T07:57:18.686Z,9.63
2023-03-14T08:00:07.193Z,7.60
2023-03-14T08:03:00.735Z,7.13
2023-03-14T08:05:49.459Z,8.73
2023-03-14T08:08:37.016Z,13.27
2023-03-14T08:11:24.794Z,6.30
2023-03-14T08:14:12.577Z,5.85
2023-03-14T08:17:00.343Z,6.43
2023-03-14T08:19:48.429Z,8.32
2023-03-14T08:22:36.145Z,6.13
2023-03-14T08:25:23.905Z,10.23
2023-03-14T08:28:11.692Z,11.40
2023-03-14T08:30:59.441Z,8.25
2023-03-14T08:33:47.118Z,7.07
2023-03-14T08:36:35.276Z,6.70
2023-03-14T08:39:23.084Z,6.47
2023-03-14T08:42:10.800Z,7.07
2023-03-14T08:44:58.509Z,8.90
2023-03-14T08:47:46.488Z,11.93
2023-03-14T08:50:35.203Z,8.10
2023-03-14T08:53:23.830Z,11.93
2023-03-14T08:56:11.651Z,7.97
2023-03-14T08:58:59.350Z,8.93
2023-03-14T09:01:46.996Z,8.27
2023-03-14T09:04:34.780Z,9.35
2023-03-14T09:07:22.550Z,6.45
2023-03-14T09:10:11.102Z,8.40
2023-03-14T09:12:59.547Z,9.75
2023-03-14T09:15:52.324Z,5.65
2023-03-14T09:18:40.041Z,4.45
2023-03-14T09:21:28.790Z,3.47
2023-03-14T09:24:17.613Z,7.50
2023-03-14T09:27:09.663Z,5.05
2023-03-14T09:32:45.238Z,6.90
2023-03-14T09:35:35.853Z,6.32
2023-03-14T09:38:24.423Z,5.93
2023-03-14T09:41:43.195Z,4.82
2023-03-14T09:44:33.976Z,3.05
2023-03-14T09:47:22.786Z,2.63
2023-03-14T09:50:19.052Z,7.22
2023-03-14T09:53:13.437Z,3.55
2023-03-14T09:56:01.055Z,6.15
2023-03-14T09:59:01.381Z,4.35
2023-03-14T10:01:49.119Z,8.98
2023-03-14T10:04:37.443Z,5.93
2023-03-14T10:07:34.626Z,5.07
2023-03-14T10:10:26.157Z,5.57
2023-03-14T10:13:27.235Z,4.68
2023-03-14T10:16:20.068Z,5.25
2023-03-14T10:19:21.259Z,4.15
2023-03-14T10:22:34.941Z,2.42
2023-03-14T10:25:30.054Z,3.47
2023-03-14T10:28:32.264Z,2.97
2023-03-14T10:34:18.148Z,6.63
2023-03-14T10:37:28.814Z,2.67
2023-03-14T10:40:18.782Z,0.85
2023-03-14T10:43:16.753Z,1.35
2023-03-14T10:46:15.770Z,4.10
2023-03-14T10:53:05.048Z,2.80
2023-03-14T10:55:57.897Z,2.17
2023-03-14T10:58:48.292Z,1.92
2023-03-14T11:01:42.083Z,2.38
2023-03-14T11:04:37.219Z,5.38
2023-03-14T11:07:45.929Z,1.42
2023-03-14T11:10:44.280Z,1.85
2023-03-14T11:13:38.442Z,2.50
2023-03-14T11:16:56.584Z,6.20
2023-03-14T11:19:53.297Z,2.30
2023-03-14T11:23:02.469Z,3.78
2023-03-14T11:26:01.011Z,1.63
2023-03-14T11:28:58.558Z,3.45
2023-03-14T11:31:47.690Z,3.30
2023-03-14T11:34:49.362Z,3.00
2023-03-14T11:37:49.275Z,3.75
2023-03-14T11:40:40.591Z,3.47
2023-03-14T11:43:38.338Z,3.78
2023-03-14T11:47:00.636Z,5.88
2023-03-14T11:53:05.882Z,2.95
2023-03-14T11:55:55.003Z,4.35
2023-03-14T11:58:56.175Z,1.38
2023-03-14T12:01:55.076Z,1.58
2023-03-14T12:04:51.605Z,6.18
2023-03-14T12:08:12.469Z,2.15
2023-03-14T12:11:05.945Z,0.93
2023-03-14T12:13:54.807Z,2.22
2023-03-14T12:16:47.058Z,2.55
2023-03-14T12:19:37.782Z,0.68
2023-03-14T12:22:43.093Z,2.63
2023-03-14T12:25:34.722Z,1.30
2023-03-14T12:28:32.632Z,1.45
2023-03-14T12:31:32.695Z,1.80
2023-03-14T12:34:20.764Z,1.33
2023-03-14T12:37:34.439Z,2.38
2023-03-14T12:40:32.874Z,0.60
2023-03-14T12:43:30.119Z,1.40
2023-03-14T12:46:29.095Z,0.90
2023-03-14T12:49:16.976Z,2.95
2023-03-14T12:52:20.451Z,4.97
2023-03-14T12:55:42.093Z,5.00
2023-03-14T12:58:36.496Z,3.90
2023-03-14T13:01:24.181Z,4.80
2023-03-14T13:04:13.411Z,1.17
2023-03-14T13:07:03.785Z,1.45
2023-03-14T13:09:55.950Z,1.77
2023-03-14T13:12:56.790Z,1.75
2023-03-14T13:15:47.419Z,1.35
2023-03-14T13:18:43.532Z,2.13
2023-03-14T13:21:36.627Z,4.88
2023-03-14T13:24:27.386Z,1.10
2023-03-14T13:27:22.901Z,2.35
2023-03-14T13:30:21.916Z,0.75
2023-03-14T13:33:18.427Z,1.15
2023-03-14T13:36:07.298Z,1.48
2023-03-14T13:39:00.575Z,5.43
2023-03-14T13:41:49.613Z,1.98
2023-03-14T13:44:42.410Z,3.38
2023-03-14T13:47:30.949Z,1.63
2023-03-14T13:50:19.912Z,5.90
2023-03-14T13:53:12.769Z,1.35
2023-03-14T13:56:04.938Z,1.40
2023-03-14T13:58:53.666Z,2.40
2023-03-14T14:01:49.623Z,2.20
2023-03-14T14:04:38.696Z,5.20
2023-03-14T14:07:26.489Z,0.93
2023-03-14T14:10:15.158Z,7.38
2023-03-14T14:13:05.216Z,2.67
2023-03-14T14:15:55.834Z,1.98
2023-03-14T14:18:43.706Z,3.92
2023-03-14T14:21:32.941Z,1.27
2023-03-14T14:24:24.900Z,5.85
2023-03-14T14:30:25.801Z,1.55
2023-03-14T14:33:23.596Z,2.15
2023-03-14T14:36:22.062Z,3.88
2023-03-14T14:39:22.831Z,5.60
2023-03-14T14:42:19.885Z,1.65
2023-03-14T14:45:16.548Z,2.30
2023-03-14T14:48:11.717Z,2.75
2023-03-14T14:51:05.143Z,1.10
2023-03-14T14:54:20.696Z,2.30
2023-03-14T14:57:19.752Z,1.73
2023-03-14T15:00:13.717Z,2.55
2023-03-14T15:03:01.810Z,1.92
2023-03-14T15:05:49.690Z,4.00
2023-03-14T15:08:39.225Z,2.70
2023-03-14T15:11:28.058Z,4.20
2023-03-14T15:14:15.828Z,13.32
2023-03-14T15:17:04.169Z,3.92
2023-03-14T15:19:51.810Z,3.60
2023-03-14T15:22:39.433Z,8.27
2023-03-14T15:25:51.532Z,5.68
2023-03-14T15:28:35.908Z,5.47
2023-03-14T15:31:24.015Z,7.25
2023-03-14T15:34:11.756Z,3.05
2023-03-14T15:36:59.426Z,4.72
2023-03-14T15:39:47.184Z,1.95
2023-03-14T15:42:34.943Z,6.43
2023-03-14T15:45:22.637Z,6.13
2023-03-14T15:48:22.430Z,6.63
2023-03-14T15:51:10.079Z,10.18
2023-03-14T15:53:57.990Z,1.40
2023-03-14T15:56:45.845Z,3.30
2023-03-14T15:59:33.707Z,2.22
2023-03-14T16:02:21.350Z,1.50
2023-03-14T16:05:13.480Z,1.38
2023-03-14T16:10:50.363Z,11.18
2023-03-14T16:13:39.069Z,23.38
2023-03-14T16:16:26.760Z,9.75
2023-03-14T16:19:14.601Z,12.75
2023-03-14T16:22:02.377Z,19.02
2023-03-14T16:24:52.331Z,18.98
2023-03-14T16:27:40.211Z,61.47
2023-03-14T16:30:27.997Z,33.75
2023-03-14T16:33:17.086Z,20.50
2023-03-14T16:36:08.800Z,23.77
2023-03-14T16:38:56.611Z,18.25
2023-03-14T16:41:50.492Z,47.85
2023-03-14T16:44:38.162Z,44.47
2023-03-14T16:47:25.997Z,18.92
2023-03-14T16:50:16.307Z,15.55
2023-03-14T16:53:03.957Z,28.90
2023-03-14T16:55:52.001Z,30.67
2023-03-14T16:58:40.243Z,36.50
2023-03-14T17:01:27.983Z,51.60
2023-03-14T17:04:15.947Z,21.02
2023-03-14T17:07:03.851Z,26.00
2023-03-14T17:09:52.087Z,15.55
2023-03-14T17:12:39.801Z,14.02
2023-03-14T17:15:27.444Z,13.43
2023-03-14T17:18:15.168Z,12.90
2023-03-14T17:21:03.887Z,19.55
2023-03-14T17:23:51.751Z,24.98
2023-03-14T17:26:39.409Z,20.42
2023-03-14T17:29:27.051Z,11.73
2023-03-14T17:32:16.130Z,8.25
2023-03-14T17:35:04.097Z,9.52
2023-03-14T17:37:51.961Z,19.98
2023-03-14T17:40:39.806Z,15.63
2023-03-14T17:43:27.649Z,12.60
2023-03-14T17:46:17.188Z,14.82
2023-03-14T17:49:04.965Z,8.85
2023-03-14T17:51:52.873Z,14.32
2023-03-14T17:54:40.898Z,6.00
2023-03-14T17:57:29.434Z,16.17
2023-03-14T18:00:17.985Z,21.30
2023-03-14T18:03:06.329Z,6.68
2023-03-14T18:05:57.077Z,8.80
2023-03-14T18:08:46.771Z,6.30
2023-03-14T18:11:34.548Z,7.85
2023-03-14T18:14:22.213Z,14.15
2023-03-14T18:17:12.987Z,7.50
2023-03-14T18:20:00.780Z,5.97
2023-03-14T18:22:48.528Z,5.00
2023-03-14T18:25:36.243Z,9.52
2023-03-14T18:28:23.944Z,6.70
2023-03-14T18:31:13.575Z,9.57
2023-03-14T18:34:01.884Z,8.98
2023-03-14T18:36:50.022Z,5.88
2023-03-14T18:39:37.746Z,9.05
2023-03-14T18:42:25.597Z,12.93
2023-03-14T18:45:13.735Z,6.00
2023-03-14T18:48:02.332Z,12.18
2023-03-14T18:51:15.415Z,16.80
2023-03-14T18:54:09.572Z,15.20
2023-03-14T18:57:00.532Z,13.13
2023-03-14T18:59:48.420Z,12.45
2023-03-14T19:02:39.063Z,12.20
2023-03-14T19:05:37.418Z,10.35
2023-03-14T19:08:42.398Z,8.57
2023-03-14T19:11:30.083Z,12.13
2023-03-14T19:14:20.434Z,7.20
2023-03-14T19:17:08.133Z,8.43
2023-03-14T19:19:57.093Z,13.38
2023-03-14T19:22:47.810Z,9.68
2023-03-14T19:25:35.821Z,16.38
2023-03-14T19:28:24.544Z,22.83
2023-03-14T19:31:12.254Z,20.50
2023-03-14T19:34:00.114Z,21.70
2023-03-14T19:36:47.825Z,17.15
2023-03-14T19:39:35.579Z,14.70
2023-03-14T19:42:23.261Z,9.75
2023-03-14T19:45:11.967Z,16.20
2023-03-14T19:48:04.322Z,12.73
2023-03-14T19:50:52.046Z,11.15
2023-03-14T19:53:39.965Z,9.40
2023-03-14T19:56:27.690Z,28.55
2023-03-14T19:59:15.480Z,19.35
2023-03-14T20:02:03.312Z,24.00
2023-03-14T20:04:54.700Z,36.45
2023-03-14T20:07:42.984Z,55.67
2023-03-14T20:10:31.148Z,28.50
2023-03-14T20:13:22.275Z,23.70
2023-03-14T20:16:10.939Z,23.75
2023-03-14T20:18:58.680Z,25.17
2023-03-14T20:21:46.413Z,25.15
2023-03-14T20:24:34.383Z,17.60
2023-03-14T20:27:22.122Z,40.15
2023-03-14T20:30:13.111Z,30.23
2023-03-14T20:33:04.849Z,35.45
2023-03-14T20:35:57.747Z,37.78
2023-03-14T20:38:45.432Z,35.70
2023-03-14T20:41:33.218Z,34.40
2023-03-14T20:44:20.953Z,38.80
2023-03-14T20:47:08.683Z,46.22
2023-03-14T20:49:56.621Z,49.15
2023-03-14T20:52:45.513Z,30.90
2023-03-14T20:55:33.216Z,38.20
2023-03-14T20:58:20.826Z,35.22
2023-03-14T21:01:09.278Z,49.53
2023-03-14T21:03:57.023Z,45.15
2023-03-14T21:06:46.245Z,40.47
2023-03-14T21:09:34.067Z,46.03
2023-03-14T21:12:24.866Z,47.22
2023-03-14T21:15:15.495Z,38.17
2023-03-14T21:18:05.890Z,42.70
2023-03-14T21:20:55.209Z,35.65
2023-03-14T21:23:45.098Z,31.67
2023-03-14T21:26:33.064Z,45.42
2023-03-14T21:29:21.861Z,37.50
2023-03-14T21:32:10.961Z,42.22
2023-03-14T21:34:58.793Z,38.38
2023-03-14T21:37:46.682Z,28.65
2023-03-14T21:40:34.628Z,42.85
2023-03-14T21:43:27.134Z,39.65
2023-03-14T21:46:20.579Z,49.15
2023-03-14T21:49:11.480Z,47.15
2023-03-14T21:51:59.079Z,32.60
2023-03-14T21:54:51.958Z,37.15
2023-03-14T21:57:42.022Z,31.02
2023-03-14T22:00:29.802Z,36.15
2023-03-14T22:03:19.153Z,90.07
2023-03-14T22:06:08.422Z,52.35
2023-03-14T22:08:56.163Z,48.67
2023-03-14T22:11:43.973Z,22.63
2023-03-14T22:14:31.787Z,24.20
2023-03-14T22:17:20.653Z,23.85
2023-03-14T22:20:10.830Z,16.35
2023-03-14T22:22:58.568Z,16.25
2023-03-14T22:25:49.880Z,17.02
2023-03-14T22:28:37.650Z,19.25
2023-03-14T22:31:25.274Z,16.60
2023-03-14T22:34:13.023Z,16.92
2023-03-14T22:37:02.482Z,16.73
2023-03-14T22:39:50.149Z,21.55
2023-03-14T22:42:40.079Z,15.77
2023-03-14T22:45:28.242Z,18.60
2023-03-14T22:48:16.010Z,14.13
2023-03-14T22:51:11.736Z,15.80
2023-03-14T22:53:59.520Z,16.38
2023-03-14T22:56:47.209Z,14.15
2023-03-14T22:59:35.128Z,10.43
2023-03-14T23:02:22.873Z,16.63
2023-03-14T23:05:10.844Z,15.13
2023-03-14T23:07:58.539Z,19.73
2023-03-14T23:10:46.811Z,17.25
2023-03-14T23:13:35.409Z,18.33
2023-03-14T23:16:34.165Z,19.52
2023-03-14T23:19:29.283Z,28.25
2023-03-14T23:22:16.983Z,24.13
2023-03-14T23:25:05.103Z,26.17
2023-03-14T23:27:54.390Z,28.45
2023-03-14T23:30:42.149Z,22.23
2023-03-14T23:33:29.865Z,21.95
2023-03-14T23:36:22.481Z,15.95
2023-03-14T23:39:11.390Z,41.13
2023-03-14T23:41:59.083Z,30.35
2023-03-14T23:44:46.903Z,18.88
2023-03-14T23:47:34.874Z,22.08
2023-03-14T23:50:25.698Z,28.75
2023-03-14T23:53:13.781Z,15.30
2023-03-14T23:56:01.662Z,11.73
2023-03-14T23:58:51.619Z,17.77
